x

West Orca Bay - 8nm Nw Of Hinchinbrook Is , Ak (46060) Wave Buoy

10:50pm - Sat 25th Oct 2014 All times are AKDT. -8 hours from GMT.

  • Sig Wave height 1.3ft
  • Swell Direction
  • Peak Period 9s
  • Average Period 4s
  • Wind
    11mph, 13mph gusts
  • Sea Temp 49°f
  • Air Temp 43°f
  • Sea Pressure 1007.6mb
  • West Orca Bay - 8nm Nw Of Hinchinbrook  Is , Ak
  • West Orca Bay - 8nm Nw Of Hinchinbrook  Is , Ak

More Historic Weather Station data

Upgrade to MSW Pro to gain access to the past 30 days of data for over 8000 Wavebouys and Weather Stations around the globe.

Join Pro

Comparision Forecast

View Surf forecast
   
Sat 10/25 10:50pm 1.3ft 9s 4s 11 13 mph 1007.6mb 49f 43f
9:50pm 1.6ft 8s 4s 13 16 mph 1007.5mb 49f 43f
8:50pm 1.3ft 9s 3s 11 13 mph 1007.5mb 49f 43f
7:50pm 1.3ft 10s 3s 13 16 mph 1007.4mb 49f 43f
6:50pm 1ft 4s 3s 13 16 mph 1007.5mb 49f 44f
5:50pm 1ft 3s 3s 9 11 mph 1007.4mb 49f 44f
4:50pm 1ft 3s 3s 11 16 mph 1007.2mb 49f 44f
3:50pm 1ft 3s 3s 11 16 mph 1007.3mb 50f 44f
2:50pm 1.3ft 4s 3s 11 13 mph 1007.5mb 50f 44f
1:50pm 1.3ft 4s 3s 13 16 mph 1007.8mb 49f 44f
12:50pm 1.3ft 3s 3s 13 16 mph 1008mb 49f 44f
11:50am 1.6ft 4s 3s 13 16 mph 1008.2mb 49f 44f
10:50am 1.3ft 4s 4s 11 13 mph 1008.6mb 49f 44f
9:50am 1ft 4s 4s 9 11 mph 1008.8mb 49f 44f
8:50am 1ft 4s 4s 7 9 mph 1009mb 49f 43f
7:50am 1ft 4s 4s 4 7 mph 1009.1mb 49f 44f
6:50am 1ft 4s 4s 11 16 mph 1009mb 49f 44f
5:50am 0.7ft  -  4s 7 9 mph 1009mb 49f 44f
4:50am 0.7ft  -  4s 7 9 mph 1009.2mb 49f 44f
3:50am 1ft 9s 4s 7 9 mph 1009.5mb 49f 44f
2:50am 1ft 8s 4s 4
mph
1009.5mb 49f 44f
1:50am 1ft 3s 4s  -  2 mph 1009.6mb 49f 43f
12:50am 1ft 4s 3s 4
mph
1009.9mb 49f 43f
Fri 10/24 11:50pm 1ft 8s 4s 7 9 mph 1009.9mb 49f 44f
10:50pm 1ft 8s 4s 9 11 mph 1009.8mb 49f 44f
9:50pm 1ft 7s 4s 7 11 mph 1009.8mb 49f 44f
8:50pm 1ft 7s 4s 7 9 mph 1009.5mb 49f 44f
7:50pm 1ft 8s 4s 7
mph
1009.4mb 49f 44f
6:50pm 0.7ft  -  4s 4 7 mph 1009.2mb 49f 43f
5:50pm 0.7ft  -  4s 9 11 mph 1008.9mb 50f 44f
4:50pm 1ft 3s 3s 9 11 mph 1008.5mb 50f 45f
3:50pm 1ft 3s 3s 11 13 mph 1008.2mb 50f 44f
2:50pm 1ft 3s 3s 13 16 mph 1008.1mb 50f 44f
1:50pm 1ft 3s 3s 13 16 mph 1008.1mb 49f 44f
12:50pm 1.3ft 3s 3s 13 16 mph 1008mb 49f 44f
11:50am 1.3ft 3s 3s 13 16 mph 1007.8mb 49f 44f
10:50am 1.3ft 3s 3s 13 18 mph 1007.5mb 49f 44f
9:50am 1.3ft 7s 4s 13 18 mph 1007.4mb 50f 44f
8:50am 1ft 7s 4s 13 16 mph 1007.3mb 50f 44f
7:50am 1ft 2s 3s 9 11 mph 1007.4mb 50f 44f
6:50am 1.3ft 8s 3s 13 16 mph 1007.3mb 50f 44f
5:50am 1ft 8s 4s 11 13 mph 1007mb 49f 45f
4:50am 1.3ft 8s 3s 13 16 mph 1006.7mb 49f 45f
3:50am 1.6ft 3s 3s 11 13 mph 1006.6mb 49f 45f
2:50am 1.3ft 7s 4s 13 16 mph 1006.4mb 49f 45f
1:50am 1.3ft 7s 4s 13 18 mph 1006.3mb 49f 45f
12:50am 1.6ft 7s 4s 13 16 mph 1006.1mb 49f 45f
Thu 10/23 11:50pm 1.6ft 8s 5s 7 11 mph 1006.1mb 49f 46f
10:50pm 1ft 8s 4s 2
mph
1006.1mb 49f 46f
9:50pm 1ft 7s 4s 4 7 mph 1005.8mb 50f 46f
8:50pm 1.3ft 8s 5s 4 7 mph 1005.4mb 50f 46f
7:50pm 1.3ft 8s 4s 7 9 mph 1004.6mb 50f 46f
6:50pm 1.3ft 8s 4s 7
mph
1003.9mb 50f 46f
5:50pm 1.6ft 8s 4s 9
mph
1003.4mb 50f 46f
4:50pm 1.6ft 8s 4s 9 11 mph 1003mb 50f 46f
3:50pm 2ft 8s 4s 9 11 mph 1002.7mb 50f 46f
2:50pm 1.3ft 8s 4s 11 13 mph 1002.5mb 49f 46f
1:50pm 1.6ft 8s 4s 11 13 mph 1002.3mb 49f 45f
12:50pm 2ft 4s 4s 11 13 mph 1001.9mb 50f 45f
11:50am 2.5ft 5s 4s 16 18 mph 1001.7mb 50f 46f
10:50am 2.5ft 4s 4s 18 22 mph 1001.5mb 50f 45f
9:50am  -   -   -  18 20 mph 1001.3mb 50f 46f
8:50am 1.3ft 9s 4s 11 13 mph 1001.1mb 50f 46f
7:50am 1.3ft 4s 4s 11
mph
1001.2mb 50f 46f
6:50am 1.3ft 4s 4s 7 9 mph 1001mb 50f 46f
5:50am 1.3ft 4s 4s 9 11 mph 1000.5mb 50f 45f
4:50am 1.6ft 4s 4s 11 13 mph 1000.1mb 49f 46f
3:50am 2.5ft 4s 4s 13 16 mph 999.7mb 49f 45f
2:50am 2ft 11s 4s 16 20 mph 999.3mb 49f 45f
1:50am 1.6ft 4s 4s 16 20 mph 998.8mb 49f 46f
12:50am 2.5ft 10s 5s 13 16 mph 998mb 50f 47f
Wed 10/22 11:50pm 2ft 11s 4s 11 13 mph 997.1mb 50f 49f
10:50pm 2.5ft 10s 5s 11 13 mph 996.3mb 50f 49f
9:50pm 2.5ft 11s 6s 11 13 mph 995.4mb 50f 49f
8:50pm 2.5ft 11s 6s 7
mph
994.7mb 50f 49f
7:50pm 2.5ft 12s 6s  -  2 mph 994.2mb 50f 49f
6:50pm 2ft 12s 5s 2
mph
993.2mb 50f 49f
5:50pm 2.5ft 11s 6s 7
mph
992.4mb 49f 49f
4:50pm 2.5ft 12s 6s 2 4 mph 991.7mb 49f 49f
3:50pm 2ft 11s 6s  -  2 mph 991mb 49f 49f
2:50pm 2ft 11s 6s 2
mph
990.2mb 49f 48f
1:50pm 1.6ft 11s 5s  -  2 mph 989.8mb 49f 48f
12:50pm 1.6ft 11s 5s  -  2 mph 989.3mb 49f 48f
11:50am 1.6ft 10s 5s 2
mph
988.8mb 49f 47f
10:50am 1.6ft 10s 5s 4 7 mph 988.4mb 49f 47f
9:50am 1.6ft 10s 6s 2
mph
988.1mb 49f 47f
8:50am 1.6ft 10s 6s 2 4 mph 987.8mb 50f 48f